Time;durP1;ratioP1;P1;durP2;ratioP2;P2;SDS_P1;SDS_P2;PMS_P1;PMS_P2;Temp;Humidity;BMP_temperature;BMP_pressure;BME280_temperature;BME280_humidity;BME280_pressure;Samples;Min_cycle;Max_cycle;Signal;HPM_P1;HPM_P2
2023/09/01 00:01:03;;;;;;;2.08;1.20;;;23.30;48.40;;;;;;5030736;28;20105;-64
2023/09/01 00:03:58;;;;;;;2.85;1.27;;;23.30;48.40;;;;;;5015357;28;20333;-64
2023/09/01 00:06:24;;;;;;;1.80;1.10;;;23.30;48.40;;;;;;5029462;28;20021;-64
2023/09/01 00:08:49;;;;;;;2.20;1.17;;;23.30;48.40;;;;;;5029181;28;20103;-64
2023/09/01 00:11:16;;;;;;;2.83;1.50;;;23.30;48.40;;;;;;5030577;28;20565;-65
2023/09/01 00:13:41;;;;;;;2.17;1.10;;;23.30;48.40;;;;;;5031498;28;20092;-63
2023/09/01 00:16:08;;;;;;;2.58;1.08;;;23.30;48.50;;;;;;5028950;28;20037;-65
2023/09/01 00:18:34;;;;;;;2.92;1.00;;;23.30;48.50;;;;;;5019563;28;20364;-64
2023/09/01 00:21:01;;;;;;;2.63;1.10;;;23.30;49.10;;;;;;5028362;28;20103;-65
2023/09/01 00:23:27;;;;;;;2.17;1.08;;;23.30;48.60;;;;;;5039350;28;20021;-64
2023/09/01 00:25:58;;;;;;;2.33;1.33;;;23.30;48.60;;;;;;5024785;28;20033;-64
2023/09/01 00:28:24;;;;;;;2.63;1.60;;;23.30;48.60;;;;;;5027172;28;20077;-65
2023/09/01 00:30:56;;;;;;;2.72;1.60;;;23.30;48.60;;;;;;5010668;28;20038;-65
2023/09/01 00:33:25;;;;;;;1.88;1.20;;;23.30;48.60;;;;;;5010827;28;20437;-63
2023/09/01 00:35:51;;;;;;;2.40;1.33;;;23.30;48.70;;;;;;5011633;28;20758;-65
2023/09/01 00:38:18;;;;;;;2.40;1.13;;;23.30;48.70;;;;;;5030717;28;20022;-64
2023/09/01 00:40:45;;;;;;;2.60;1.30;;;23.30;48.70;;;;;;5013190;28;20025;-66
2023/09/01 00:43:11;;;;;;;2.25;1.10;;;23.30;48.70;;;;;;5031878;28;20037;-64
2023/09/01 00:45:40;;;;;;;2.70;1.42;;;23.30;48.80;;;;;;5024148;28;20041;-64
2023/09/01 00:48:08;;;;;;;2.28;1.20;;;23.30;48.80;;;;;;5029779;28;20235;-66
2023/09/01 00:50:38;;;;;;;4.32;1.60;;;23.30;48.80;;;;;;5016114;28;20021;-65
2023/09/01 00:53:05;;;;;;;2.40;1.20;;;23.30;48.80;;;;;;5013139;28;20048;-64
2023/09/01 00:55:35;;;;;;;1.65;1.15;;;23.30;48.80;;;;;;5029368;28;20044;-64
2023/09/01 00:58:02;;;;;;;2.10;1.30;;;23.30;48.80;;;;;;5007526;28;20072;-65
2023/09/01 01:00:31;;;;;;;2.88;1.20;;;23.30;48.90;;;;;;5027892;28;20026;-64
2023/09/01 01:03:03;;;;;;;2.58;1.42;;;23.20;48.80;;;;;;5007332;28;20134;-67
2023/09/01 01:05:56;;;;;;;1.70;1.10;;;23.30;48.90;;;;;;5009915;28;20029;-65
2023/09/01 01:08:44;;;;;;;2.88;1.10;;;23.20;48.80;;;;;;5002184;28;20033;-63
2023/09/01 01:11:44;;;;;;;2.20;1.10;;;23.30;49.00;;;;;;5031223;28;20096;-64
2023/09/01 01:14:42;;;;;;;2.25;1.20;;;23.20;48.90;;;;;;5028010;28;20029;-64
2023/09/01 01:17:09;;;;;;;2.38;1.20;;;23.20;49.00;;;;;;5025035;28;20337;-64
2023/09/01 01:19:53;;;;;;;3.38;1.20;;;23.20;49.00;;;;;;5026224;28;20409;-66
2023/09/01 01:22:23;;;;;;;;;;;23.20;49.00;;;;;;5014027;28;20286;-64
2023/09/01 01:24:49;;;;;;;2.58;1.00;;;23.20;49.10;;;;;;5044239;28;19936;-65
2023/09/01 01:27:19;;;;;;;3.00;1.20;;;23.20;49.10;;;;;;5033581;28;20125;-63
2023/09/01 01:29:47;;;;;;;2.47;1.30;;;23.20;49.30;;;;;;5028192;28;20343;-65
2023/09/01 01:32:14;;;;;;;2.42;1.40;;;23.20;49.20;;;;;;5018389;28;20195;-66
2023/09/01 01:34:49;;;;;;;1.88;1.20;;;23.20;49.20;;;;;;5010045;28;20484;-67
2023/09/01 01:37:42;;;;;;;2.58;1.20;;;23.20;49.30;;;;;;5029586;28;20057;-67
2023/09/01 01:40:09;;;;;;;3.10;1.67;;;23.20;49.30;;;;;;5036121;28;20029;-64
2023/09/01 01:42:37;;;;;;;2.38;1.10;;;23.20;49.30;;;;;;5013915;28;20041;-65
2023/09/01 01:45:04;;;;;;;2.65;1.42;;;23.20;49.30;;;;;;5033273;28;20033;-65
2023/09/01 01:47:32;;;;;;;1.35;1.02;;;23.20;49.30;;;;;;5035279;28;20145;-63
2023/09/01 01:49:58;;;;;;;2.65;1.30;;;23.20;49.30;;;;;;5014931;28;20303;-63
2023/09/01 01:52:24;;;;;;;1.90;1.27;;;23.20;49.30;;;;;;5019207;28;20129;-64
2023/09/01 01:54:50;;;;;;;2.58;1.00;;;23.20;49.30;;;;;;5009944;28;20064;-66
2023/09/01 01:57:16;;;;;;;1.77;1.17;;;23.20;49.30;;;;;;5013905;28;20033;-64
2023/09/01 01:59:43;;;;;;;2.38;1.30;;;23.20;49.40;;;;;;5011913;28;20110;-63
2023/09/01 02:02:09;;;;;;;2.00;1.17;;;23.20;49.40;;;;;;5035740;28;20054;-66
2023/09/01 02:04:35;;;;;;;1.85;1.10;;;23.20;49.40;;;;;;5012547;28;20020;-63
2023/09/01 02:07:05;;;;;;;1.45;1.10;;;23.20;49.40;;;;;;5033956;28;20098;-66
2023/09/01 02:09:33;;;;;;;1.80;1.20;;;23.20;49.40;;;;;;5010871;28;20314;-63
2023/09/01 02:11:59;;;;;;;2.03;1.10;;;23.20;49.50;;;;;;5008421;28;20068;-63
2023/09/01 02:14:25;;;;;;;2.40;1.30;;;23.10;49.40;;;;;;5011718;28;20414;-63
2023/09/01 02:16:51;;;;;;;2.17;1.00;;;23.20;49.40;;;;;;5008516;28;20921;-64
2023/09/01 02:19:17;;;;;;;2.72;1.20;;;23.10;49.40;;;;;;5007528;28;20033;-62
2023/09/01 02:21:44;;;;;;;2.47;1.17;;;23.10;49.40;;;;;;5015001;28;20096;-65
2023/09/01 02:24:11;;;;;;;2.65;1.33;;;23.20;49.50;;;;;;5017326;28;20111;-64
2023/09/01 02:26:36;;;;;;;1.95;1.20;;;23.10;49.40;;;;;;5020830;28;20090;-63
2023/09/01 02:29:05;;;;;;;2.53;1.17;;;23.20;49.40;;;;;;5013873;28;20464;-63
2023/09/01 02:31:30;;;;;;;2.40;1.50;;;23.10;49.40;;;;;;5014973;28;20034;-65
2023/09/01 02:33:57;;;;;;;1.70;1.17;;;23.10;49.40;;;;;;5013680;28;20078;-63
2023/09/01 02:36:25;;;;;;;1.42;0.90;;;23.20;49.40;;;;;;5006825;28;20286;-65
2023/09/01 02:38:52;;;;;;;1.85;1.17;;;23.10;49.40;;;;;;5010596;28;20068;-65
2023/09/01 02:41:19;;;;;;;2.00;1.00;;;23.10;49.30;;;;;;5012265;28;20055;-62
2023/09/01 02:43:45;;;;;;;1.50;1.05;;;23.10;49.30;;;;;;5013209;28;20072;-65
2023/09/01 02:46:12;;;;;;;2.35;1.13;;;23.10;49.30;;;;;;5007078;28;20022;-65
2023/09/01 02:48:38;;;;;;;2.08;1.30;;;23.10;49.30;;;;;;5043048;28;20038;-63
2023/09/01 02:51:05;;;;;;;2.22;1.27;;;23.10;49.30;;;;;;5033047;28;20086;-64
2023/09/01 02:53:35;;;;;;;2.35;1.13;;;23.10;49.30;;;;;;5029089;28;20032;-66
2023/09/01 02:56:03;;;;;;;1.88;1.10;;;23.10;49.30;;;;;;5019530;28;20094;-63
2023/09/01 02:58:29;;;;;;;3.30;1.17;;;23.10;49.30;;;;;;5029633;28;20025;-64
2023/09/01 03:00:56;;;;;;;2.00;1.13;;;23.10;49.30;;;;;;5003739;28;20119;-65
2023/09/01 03:03:22;;;;;;;2.00;1.25;;;23.10;49.90;;;;;;5037286;28;20038;-64
2023/09/01 03:05:50;;;;;;;3.63;1.10;;;23.10;49.30;;;;;;5011343;28;20044;-64
2023/09/01 03:08:22;;;;;;;2.42;1.13;;;23.10;49.40;;;;;;5025602;28;20041;-64
2023/09/01 03:10:49;;;;;;;2.40;1.15;;;23.10;49.30;;;;;;5035956;28;20295;-63
2023/09/01 03:13:15;;;;;;;2.53;1.17;;;23.10;49.30;;;;;;5028512;28;20033;-61
2023/09/01 03:15:42;;;;;;;2.58;1.20;;;23.10;49.30;;;;;;5032917;28;20025;-63
2023/09/01 03:18:10;;;;;;;1.70;0.90;;;23.00;49.30;;;;;;5009347;28;21352;-65
2023/09/01 03:20:38;;;;;;;2.58;1.40;;;23.00;49.30;;;;;;5004443;28;20122;-63
2023/09/01 03:23:04;;;;;;;3.03;0.90;;;23.00;49.30;;;;;;5016288;28;20028;-62
2023/09/01 03:25:31;;;;;;;2.15;1.10;;;23.00;49.30;;;;;;5009886;28;20025;-62
2023/09/01 03:27:57;;;;;;;1.67;1.05;;;23.00;49.30;;;;;;5010155;28;20060;-63
2023/09/01 03:30:23;;;;;;;2.15;1.20;;;23.00;49.30;;;;;;5027102;28;20030;-63
2023/09/01 03:32:49;;;;;;;2.90;1.10;;;23.00;49.30;;;;;;5029264;28;20029;-61
2023/09/01 03:35:15;;;;;;;1.90;1.25;;;23.00;49.30;;;;;;4997337;28;20095;-62
2023/09/01 03:37:41;;;;;;;2.33;1.10;;;23.00;49.30;;;;;;5007981;28;20354;-63
2023/09/01 03:40:09;;;;;;;1.88;0.90;;;23.00;49.30;;;;;;5010069;28;20049;-62
2023/09/01 03:42:37;;;;;;;2.00;1.10;;;23.00;49.30;;;;;;5006105;28;20420;-63
2023/09/01 03:45:04;;;;;;;1.88;1.20;;;23.00;49.30;;;;;;5012098;28;20171;-63
2023/09/01 03:47:30;;;;;;;2.22;1.20;;;23.00;49.30;;;;;;5014919;28;20333;-61
2023/09/01 03:49:56;;;;;;;1.55;0.88;;;23.00;49.30;;;;;;5015289;28;20040;-64
2023/09/01 03:52:22;;;;;;;2.28;1.10;;;23.00;49.40;;;;;;5013927;28;20072;-61
2023/09/01 03:54:49;;;;;;;2.10;1.20;;;23.00;49.40;;;;;;5005677;28;20397;-63
2023/09/01 03:57:17;;;;;;;2.35;1.17;;;23.00;49.40;;;;;;5035703;28;20020;-62
2023/09/01 03:59:44;;;;;;;2.63;1.30;;;23.00;49.40;;;;;;5038107;28;20048;-64
2023/09/01 04:02:10;;;;;;;2.05;1.15;;;23.00;49.40;;;;;;5021106;28;20072;-63
2023/09/01 04:04:37;;;;;;;2.10;1.30;;;23.00;49.50;;;;;;5032895;28;20073;-65
2023/09/01 04:07:03;;;;;;;1.13;0.90;;;23.00;49.50;;;;;;5003259;28;20025;-64
2023/09/01 04:09:29;;;;;;;2.92;1.40;;;23.00;49.50;;;;;;5036584;28;20045;-62
2023/09/01 04:11:56;;;;;;;1.52;1.10;;;23.00;49.50;;;;;;5010017;28;20045;-62
2023/09/01 04:14:22;;;;;;;1.65;0.90;;;22.90;49.50;;;;;;5028623;28;20033;-63
2023/09/01 04:16:49;;;;;;;2.53;1.30;;;22.90;49.50;;;;;;5020817;28;20419;-62
2023/09/01 04:19:16;;;;;;;1.48;1.02;;;22.90;49.50;;;;;;5015026;28;20025;-62
2023/09/01 04:21:41;;;;;;;2.50;1.20;;;23.00;49.50;;;;;;5010119;28;20446;-64
2023/09/01 04:24:08;;;;;;;1.83;0.98;;;22.90;49.50;;;;;;5036761;28;20196;-64
2023/09/01 04:26:34;;;;;;;2.03;1.00;;;23.00;49.60;;;;;;5026329;28;20041;-63
2023/09/01 04:29:00;;;;;;;2.22;1.05;;;22.90;49.60;;;;;;5020786;28;20044;-64
2023/09/01 04:31:29;;;;;;;2.65;1.20;;;22.90;49.60;;;;;;5010604;28;20033;-62
2023/09/01 04:33:57;;;;;;;2.50;1.35;;;22.90;49.60;;;;;;5008174;28;20036;-61
2023/09/01 04:36:23;;;;;;;2.28;1.20;;;22.90;49.60;;;;;;5010240;28;20415;-62
2023/09/01 04:38:50;;;;;;;2.42;1.15;;;22.90;49.70;;;;;;5011200;28;20021;-63
2023/09/01 04:41:16;;;;;;;1.95;1.05;;;22.90;49.80;;;;;;5008464;28;20083;-64
2023/09/01 04:43:43;;;;;;;2.42;1.33;;;22.90;49.80;;;;;;5019613;28;20033;-63
2023/09/01 04:46:09;;;;;;;2.10;1.40;;;22.90;49.80;;;;;;5031897;28;20039;-62
2023/09/01 04:48:36;;;;;;;2.95;1.52;;;22.90;49.80;;;;;;5016598;28;20056;-63
2023/09/01 04:51:02;;;;;;;2.15;1.15;;;22.90;49.90;;;;;;5011524;28;20037;-64
2023/09/01 04:53:32;;;;;;;2.47;1.27;;;22.90;49.90;;;;;;5012829;28;20032;-64
2023/09/01 04:55:58;;;;;;;5.38;1.20;;;22.90;50.50;;;;;;5009176;28;20061;-62
2023/09/01 04:58:24;;;;;;;2.28;1.42;;;22.90;49.90;;;;;;5034891;28;20032;-63
2023/09/01 05:00:57;;;;;;;3.15;1.30;;;22.90;49.90;;;;;;5007331;28;20029;-63
2023/09/01 05:03:23;;;;;;;2.63;1.30;;;22.90;50.00;;;;;;5008373;28;20049;-64
2023/09/01 05:05:50;;;;;;;1.30;1.05;;;22.90;50.00;;;;;;5029657;28;20337;-62
2023/09/01 05:08:17;;;;;;;2.30;1.15;;;22.90;50.00;;;;;;5007649;28;20051;-61
2023/09/01 05:10:43;;;;;;;1.98;1.23;;;22.90;50.00;;;;;;4999056;28;20044;-62
2023/09/01 05:13:09;;;;;;;2.53;1.00;;;22.90;50.00;;;;;;5008789;28;20033;-64
2023/09/01 05:15:36;;;;;;;1.90;1.10;;;22.90;50.00;;;;;;5012783;28;20036;-63
2023/09/01 05:18:02;;;;;;;2.80;1.40;;;22.90;50.10;;;;;;5027342;28;20026;-64
2023/09/01 05:20:28;;;;;;;2.05;1.35;;;22.90;50.10;;;;;;5013366;28;20366;-65
2023/09/01 05:22:54;;;;;;;1.80;1.20;;;22.90;50.10;;;;;;5034873;28;20136;-64
2023/09/01 05:25:20;;;;;;;2.05;1.10;;;22.90;50.10;;;;;;5017116;28;20456;-65
2023/09/01 05:27:46;;;;;;;2.65;1.40;;;22.80;50.10;;;;;;5014829;28;20067;-63
2023/09/01 05:30:13;;;;;;;1.90;1.20;;;22.90;50.10;;;;;;4995357;28;20131;-62
2023/09/01 05:32:39;;;;;;;3.35;1.20;;;22.90;50.20;;;;;;5012767;28;20136;-63
2023/09/01 05:35:05;;;;;;;1.75;1.15;;;22.90;50.20;;;;;;5006037;28;20022;-63
2023/09/01 05:37:31;;;;;;;2.20;1.08;;;22.90;50.20;;;;;;5009045;28;20030;-64
2023/09/01 05:39:57;;;;;;;2.08;1.25;;;22.80;50.20;;;;;;5029563;28;20455;-66
2023/09/01 05:42:23;;;;;;;4.07;1.27;;;22.90;50.20;;;;;;5026718;28;20033;-63
2023/09/01 05:44:49;;;;;;;4.13;1.33;;;22.90;50.30;;;;;;4991423;28;20077;-65
2023/09/01 05:47:15;;;;;;;2.80;1.60;;;22.90;50.30;;;;;;5011220;28;20111;-64
2023/09/01 05:49:41;;;;;;;2.17;1.20;;;22.90;50.30;;;;;;5016181;28;20021;-62
2023/09/01 05:52:07;;;;;;;2.95;1.40;;;22.90;50.30;;;;;;5030079;28;20030;-65
2023/09/01 05:54:33;;;;;;;2.92;1.50;;;22.90;50.40;;;;;;5026043;28;20036;-64
2023/09/01 05:56:59;;;;;;;2.47;1.48;;;22.80;50.30;;;;;;5002879;28;20309;-61
2023/09/01 05:59:25;;;;;;;3.30;1.30;;;22.90;50.40;;;;;;5030102;28;20029;-62
2023/09/01 06:01:50;;;;;;;3.53;1.35;;;22.90;50.40;;;;;;5009433;28;20101;-64
2023/09/01 06:04:16;;;;;;;2.42;1.50;;;22.90;50.50;;;;;;5027593;28;20224;-63
2023/09/01 06:06:42;;;;;;;2.83;1.15;;;22.90;50.50;;;;;;5029084;28;20041;-63
2023/09/01 06:09:08;;;;;;;2.75;1.40;;;22.90;50.50;;;;;;5024639;28;20041;-64
2023/09/01 06:11:36;;;;;;;3.17;1.50;;;22.90;50.50;;;;;;5009598;28;20045;-63
2023/09/01 06:14:03;;;;;;;2.47;1.20;;;22.90;50.50;;;;;;5032753;28;20079;-65
2023/09/01 06:16:29;;;;;;;1.90;1.27;;;22.90;50.60;;;;;;5031144;28;20112;-62
2023/09/01 06:18:57;;;;;;;3.80;1.40;;;22.90;50.60;;;;;;5012614;28;20153;-63
2023/09/01 06:21:23;;;;;;;4.15;1.40;;;22.90;50.60;;;;;;5028575;28;20125;-63
2023/09/01 06:23:49;;;;;;;2.40;1.45;;;22.90;50.60;;;;;;5042237;28;20017;-63
2023/09/01 06:26:17;;;;;;;3.35;1.50;;;22.90;50.60;;;;;;5032968;28;20116;-64
2023/09/01 06:28:44;;;;;;;2.72;1.30;;;22.90;50.70;;;;;;5031815;28;20045;-62
2023/09/01 06:31:12;;;;;;;1.73;1.38;;;22.90;50.70;;;;;;5028486;28;20117;-62
2023/09/01 06:33:42;;;;;;;2.47;1.30;;;22.90;50.70;;;;;;5022133;28;20098;-62
2023/09/01 06:36:14;;;;;;;2.80;1.60;;;22.90;50.80;;;;;;5032205;28;20033;-64
2023/09/01 06:38:40;;;;;;;3.85;1.67;;;22.90;50.90;;;;;;5033887;28;20287;-62
2023/09/01 06:41:07;;;;;;;2.10;1.40;;;22.90;50.90;;;;;;5019356;28;21808;-63
2023/09/01 06:43:32;;;;;;;3.50;1.60;;;22.90;50.90;;;;;;5033829;28;20029;-62
2023/09/01 06:45:59;;;;;;;3.45;1.40;;;22.90;50.90;;;;;;5014405;28;20403;-62
2023/09/01 06:48:25;;;;;;;3.65;1.48;;;22.90;50.90;;;;;;5032308;28;20088;-63
2023/09/01 06:50:51;;;;;;;3.25;1.55;;;22.90;51.50;;;;;;5012726;28;20037;-63
2023/09/01 06:53:17;;;;;;;2.08;1.63;;;22.90;50.90;;;;;;5027288;28;20437;-64
2023/09/01 06:55:46;;;;;;;2.67;1.38;;;23.00;51.00;;;;;;5029133;28;20074;-65
2023/09/01 06:58:12;;;;;;;2.38;1.50;;;23.00;51.00;;;;;;5018707;28;20342;-63
2023/09/01 07:00:38;;;;;;;2.45;1.27;;;23.00;51.00;;;;;;5029667;28;20318;-64
2023/09/01 07:03:04;;;;;;;4.72;1.48;;;23.00;51.00;;;;;;5007172;28;20036;-64
2023/09/01 07:05:30;;;;;;;3.13;1.50;;;23.00;51.10;;;;;;5029684;28;20396;-65
2023/09/01 07:07:56;;;;;;;3.33;1.60;;;23.00;51.10;;;;;;5029129;28;20066;-63
2023/09/01 07:10:24;;;;;;;2.42;1.42;;;23.00;51.20;;;;;;5035035;28;20512;-63
2023/09/01 07:12:53;;;;;;;5.85;1.50;;;23.00;51.20;;;;;;5028474;28;20052;-65
2023/09/01 07:15:20;;;;;;;2.92;1.48;;;23.00;51.30;;;;;;5028772;28;20401;-65
2023/09/01 07:17:45;;;;;;;2.00;1.50;;;23.00;51.30;;;;;;5005199;28;20040;-63
2023/09/01 07:20:12;;;;;;;2.95;1.60;;;23.00;51.30;;;;;;5029485;28;20025;-64
2023/09/01 07:22:38;;;;;;;2.95;1.45;;;23.10;51.30;;;;;;5015513;28;20037;-63
2023/09/01 07:25:09;;;;;;;2.30;1.50;;;23.00;51.30;;;;;;5040097;28;20077;-64
2023/09/01 07:27:35;;;;;;;3.72;1.60;;;23.10;51.30;;;;;;5044681;28;20519;-65
2023/09/01 07:30:03;;;;;;;3.13;1.40;;;23.10;51.30;;;;;;5045420;28;20389;-64
2023/09/01 07:32:31;;;;;;;4.60;1.60;;;23.10;51.30;;;;;;5038075;28;21904;-64
2023/09/01 07:34:58;;;;;;;3.22;1.55;;;23.10;51.20;;;;;;5011174;28;20361;-63
2023/09/01 07:37:25;;;;;;;3.33;1.50;;;23.10;51.20;;;;;;5008563;28;20039;-63
2023/09/01 07:39:51;;;;;;;2.25;1.20;;;23.10;51.20;;;;;;5034988;28;20463;-64
2023/09/01 07:42:17;;;;;;;3.35;1.75;;;23.10;51.80;;;;;;5031210;28;20028;-64
2023/09/01 07:44:43;;;;;;;3.45;1.40;;;23.10;51.20;;;;;;5014006;28;20039;-65
2023/09/01 07:47:09;;;;;;;3.25;1.40;;;23.10;51.20;;;;;;5036535;28;20037;-66
2023/09/01 07:49:35;;;;;;;3.25;1.58;;;23.10;51.20;;;;;;5015284;28;20139;-67
2023/09/01 07:52:01;;;;;;;4.60;1.65;;;23.10;51.20;;;;;;5032337;28;20037;-65
2023/09/01 07:54:27;;;;;;;3.53;1.38;;;23.10;51.20;;;;;;5019804;28;20491;-66
2023/09/01 07:56:53;;;;;;;3.90;1.45;;;23.10;51.20;;;;;;5013941;28;20056;-65
2023/09/01 07:59:19;;;;;;;3.75;1.65;;;23.10;51.20;;;;;;5036022;28;20424;-67
2023/09/01 08:01:45;;;;;;;2.78;1.40;;;23.10;51.20;;;;;;5031938;28;20116;-65
2023/09/01 08:04:11;;;;;;;3.83;1.60;;;23.10;51.20;;;;;;5015383;28;20160;-68
2023/09/01 08:06:37;;;;;;;2.38;1.40;;;23.20;51.30;;;;;;5036301;28;20152;-65
2023/09/01 08:09:04;;;;;;;2.63;1.48;;;23.10;51.20;;;;;;5031953;28;20085;-66
2023/09/01 08:11:34;;;;;;;3.78;1.65;;;23.10;51.30;;;;;;5040868;28;20452;-66
2023/09/01 08:14:00;;;;;;;2.90;1.30;;;23.20;51.30;;;;;;5029559;28;20033;-64
2023/09/01 08:16:26;;;;;;;3.88;1.58;;;23.10;51.30;;;;;;5028453;28;20029;-65
2023/09/01 08:18:52;;;;;;;3.45;1.50;;;23.20;51.30;;;;;;5024808;28;20463;-67
2023/09/01 08:21:17;;;;;;;4.38;1.67;;;23.10;51.30;;;;;;5029598;28;20018;-64
2023/09/01 08:23:43;;;;;;;3.33;1.77;;;23.10;51.30;;;;;;5033753;28;20052;-64
2023/09/01 08:26:09;;;;;;;4.07;2.10;;;23.20;51.40;;;;;;5012862;28;20025;-65
2023/09/01 08:28:35;;;;;;;3.33;1.63;;;23.20;51.50;;;;;;5028238;28;20486;-66
2023/09/01 08:31:02;;;;;;;4.40;1.80;;;23.20;51.50;;;;;;4995263;28;20064;-65
2023/09/01 08:33:28;;;;;;;4.97;1.75;;;23.20;51.60;;;;;;5012351;28;20037;-64
2023/09/01 08:35:55;;;;;;;4.50;1.73;;;23.20;51.60;;;;;;5029364;28;20022;-64
2023/09/01 08:38:21;;;;;;;2.95;1.70;;;23.20;51.60;;;;;;5043194;28;20032;-63
2023/09/01 08:40:57;;;;;;;3.22;1.75;;;23.20;51.60;;;;;;5039127;28;20025;-64
2023/09/01 08:43:34;;;;;;;3.35;1.60;;;23.20;51.60;;;;;;5024506;28;20036;-64
2023/09/01 08:46:02;;;;;;;3.67;1.90;;;23.20;51.60;;;;;;5041801;28;20531;-63
2023/09/01 08:48:28;;;;;;;3.45;1.73;;;23.20;51.60;;;;;;5021377;28;20442;-65
2023/09/01 08:50:55;;;;;;;3.25;1.50;;;23.20;51.60;;;;;;5025070;28;20044;-65
2023/09/01 08:53:21;;;;;;;3.83;1.77;;;23.20;51.60;;;;;;5011243;28;20055;-66
2023/09/01 08:55:48;;;;;;;2.97;1.70;;;23.30;51.60;;;;;;5041752;28;20033;-65
2023/09/01 08:58:17;;;;;;;2.63;1.60;;;23.30;51.60;;;;;;5037142;28;20049;-66
2023/09/01 09:00:44;;;;;;;3.42;1.77;;;23.30;51.60;;;;;;5044572;28;20048;-66
2023/09/01 09:03:13;;;;;;;2.90;1.73;;;23.30;51.70;;;;;;5043100;28;20415;-62
2023/09/01 09:05:40;;;;;;;2.47;1.55;;;23.30;51.70;;;;;;5044793;28;20038;-63
2023/09/01 09:08:07;;;;;;;2.88;1.77;;;23.20;51.60;;;;;;5034833;28;20041;-64
2023/09/01 09:10:38;;;;;;;4.22;1.92;;;23.30;51.70;;;;;;5026466;28;20029;-66
2023/09/01 09:13:26;;;;;;;3.35;1.52;;;23.30;51.70;;;;;;5027798;28;20041;-65
2023/09/01 09:16:14;;;;;;;1.75;1.20;;;23.30;51.80;;;;;;5044501;28;20026;-66
2023/09/01 09:18:42;;;;;;;3.83;1.70;;;23.30;51.80;;;;;;5039020;28;20033;-66
2023/09/01 09:21:27;;;;;;;3.50;1.63;;;23.30;51.80;;;;;;5041075;28;20025;-65
2023/09/01 09:23:56;;;;;;;3.65;1.73;;;23.30;51.80;;;;;;5044382;28;20029;-66
2023/09/01 09:26:30;;;;;;;3.28;1.60;;;23.30;51.80;;;;;;5042309;28;20389;-66
2023/09/01 09:29:07;;;;;;;2.08;1.48;;;23.30;51.80;;;;;;5045259;28;20428;-65
2023/09/01 09:31:37;;;;;;;3.00;1.58;;;23.30;51.90;;;;;;5042741;28;20454;-62
2023/09/01 09:34:17;;;;;;;2.38;1.30;;;23.30;51.90;;;;;;5043702;28;20033;-64
2023/09/01 09:36:48;;;;;;;2.47;1.40;;;23.30;51.90;;;;;;5023529;28;20029;-64
2023/09/01 09:39:23;;;;;;;2.67;1.60;;;23.30;52.00;;;;;;5042657;28;20108;-63
2023/09/01 09:41:50;;;;;;;2.42;1.63;;;23.30;51.90;;;;;;5041608;28;20040;-64
2023/09/01 09:44:34;;;;;;;2.83;1.55;;;23.30;52.00;;;;;;5045351;28;20309;-63
2023/09/01 09:47:12;;;;;;;3.60;2.03;;;23.30;52.70;;;;;;5045668;28;20045;-65
2023/09/01 09:49:39;;;;;;;4.03;1.60;;;23.30;52.10;;;;;;5043030;28;20033;-66
2023/09/01 09:52:11;;;;;;;3.70;2.00;;;23.30;52.10;;;;;;5043684;28;20036;-66
2023/09/01 09:54:41;;;;;;;3.28;1.48;;;23.30;52.10;;;;;;5026534;28;20033;-64
2023/09/01 09:57:14;;;;;;;3.65;2.15;;;23.30;52.20;;;;;;5044477;28;20029;-65
2023/09/01 10:00:10;;;;;;;3.70;1.77;;;23.30;52.20;;;;;;5040650;28;20052;-64
2023/09/01 10:02:47;;;;;;;3.10;1.60;;;23.40;52.40;;;;;;5042251;28;20108;-65
2023/09/01 10:05:15;;;;;;;3.88;1.95;;;23.30;52.40;;;;;;5045669;28;21714;-64
2023/09/01 10:07:42;;;;;;;2.65;1.48;;;23.40;52.50;;;;;;5021035;28;20053;-63
2023/09/01 10:10:09;;;;;;;3.92;1.65;;;23.40;52.50;;;;;;5031091;28;20033;-64
2023/09/01 10:12:36;;;;;;;2.33;1.50;;;23.40;52.60;;;;;;5030804;28;20041;-64
2023/09/01 10:15:03;;;;;;;2.70;1.63;;;23.40;52.70;;;;;;5033025;28;20542;-62
2023/09/01 10:17:32;;;;;;;3.75;1.60;;;23.40;52.70;;;;;;5015596;28;20393;-62
2023/09/01 10:20:00;;;;;;;3.67;1.50;;;23.30;52.70;;;;;;5029138;28;20152;-66
2023/09/01 10:22:26;;;;;;;4.95;1.80;;;23.40;52.80;;;;;;5038068;28;20036;-65
2023/09/01 10:25:15;;;;;;;3.38;2.00;;;23.40;52.90;;;;;;5037289;28;20025;-65
2023/09/01 10:28:03;;;;;;;2.97;1.70;;;23.40;52.90;;;;;;5002886;28;20163;-62
2023/09/01 10:30:33;;;;;;;3.22;1.80;;;23.40;53.00;;;;;;5038570;28;20033;-65
2023/09/01 10:33:26;;;;;;;2.88;1.70;;;23.40;53.00;;;;;;5032513;28;20040;-65
2023/09/01 10:35:54;;;;;;;2.70;1.50;;;23.40;53.10;;;;;;5029685;28;20061;-65
2023/09/01 10:38:22;;;;;;;2.78;1.60;;;23.40;53.10;;;;;;5033974;28;20032;-63
2023/09/01 10:40:55;;;;;;;2.40;1.33;;;23.40;53.20;;;;;;4996976;28;20069;-66
2023/09/01 10:43:38;;;;;;;2.22;1.27;;;23.40;53.30;;;;;;5030927;28;20432;-64
2023/09/01 10:46:28;;;;;;;2.53;1.33;;;23.40;53.30;;;;;;5032445;28;20103;-65
2023/09/01 10:49:00;;;;;;;2.55;1.30;;;23.40;53.40;;;;;;5024693;28;20457;-64
2023/09/01 10:51:26;;;;;;;2.42;1.55;;;23.40;53.40;;;;;;5031173;28;20448;-67
2023/09/01 10:54:01;;;;;;;2.53;1.40;;;23.40;53.50;;;;;;5014879;28;20168;-66
2023/09/01 10:56:28;;;;;;;2.47;1.40;;;23.40;53.60;;;;;;5030474;28;20099;-66
2023/09/01 10:58:56;;;;;;;3.05;1.30;;;23.40;53.60;;;;;;5028833;28;20070;-64
2023/09/01 11:01:36;;;;;;;4.15;1.20;;;23.40;53.70;;;;;;5036829;28;20116;-61
2023/09/01 11:04:14;;;;;;;1.98;1.25;;;23.40;53.70;;;;;;5012709;28;20022;-62
2023/09/01 11:06:58;;;;;;;3.30;1.27;;;23.40;53.70;;;;;;5030380;28;20044;-65
2023/09/01 11:09:33;;;;;;;2.03;1.20;;;23.40;53.80;;;;;;5030307;28;20368;-62
2023/09/01 11:12:02;;;;;;;2.38;1.40;;;23.40;53.80;;;;;;5035697;28;20490;-64
2023/09/01 11:14:29;;;;;;;3.67;1.70;;;23.40;53.90;;;;;;5029303;28;20026;-65
2023/09/01 11:16:55;;;;;;;3.30;1.30;;;23.40;53.90;;;;;;5036012;28;20029;-68
2023/09/01 11:19:21;;;;;;;1.90;1.10;;;23.40;53.90;;;;;;5015935;28;20444;-63
2023/09/01 11:21:47;;;;;;;2.00;1.30;;;23.40;54.00;;;;;;5028267;28;20098;-64
2023/09/01 11:24:19;;;;;;;1.80;1.20;;;23.40;54.00;;;;;;5021087;28;20025;-62
2023/09/01 11:26:45;;;;;;;1.85;1.27;;;23.40;54.00;;;;;;5035538;28;20030;-61
2023/09/01 11:29:13;;;;;;;2.13;1.38;;;23.40;54.10;;;;;;5034482;28;20160;-65
2023/09/01 11:31:42;;;;;;;2.20;1.33;;;23.40;54.10;;;;;;5034752;28;20718;-62
2023/09/01 11:34:08;;;;;;;2.15;1.10;;;23.40;54.20;;;;;;5033315;28;20120;-62
2023/09/01 11:36:44;;;;;;;2.53;1.58;;;23.40;54.20;;;;;;5032920;28;20113;-63
2023/09/01 11:39:10;;;;;;;2.38;0.93;;;23.40;54.20;;;;;;5027334;28;20022;-64
2023/09/01 11:41:37;;;;;;;3.30;1.50;;;23.40;54.20;;;;;;5016422;28;20132;-63
2023/09/01 11:44:03;;;;;;;2.63;1.20;;;23.40;54.20;;;;;;5043172;28;20090;-65
2023/09/01 11:46:33;;;;;;;1.55;1.00;;;23.40;54.20;;;;;;5039433;28;20339;-66
2023/09/01 11:49:00;;;;;;;1.83;1.00;;;23.40;54.30;;;;;;5045989;28;20040;-63
2023/09/01 11:51:33;;;;;;;1.92;1.05;;;23.40;54.20;;;;;;5028491;28;20025;-63
2023/09/01 11:53:59;;;;;;;2.95;1.42;;;23.40;54.30;;;;;;5026498;28;20049;-66
2023/09/01 11:56:25;;;;;;;1.40;0.88;;;23.40;54.30;;;;;;5028046;28;20021;-62
2023/09/01 11:58:53;;;;;;;2.28;1.42;;;23.50;54.40;;;;;;5010815;28;20052;-62
2023/09/01 12:01:21;;;;;;;1.40;1.10;;;23.40;54.30;;;;;;5029968;28;21267;-67
2023/09/01 12:03:51;;;;;;;2.55;1.20;;;23.40;54.30;;;;;;5004574;28;20400;-61
2023/09/01 12:06:18;;;;;;;2.65;1.92;;;23.50;54.40;;;;;;5025433;28;20052;-66
2023/09/01 12:08:54;;;;;;;2.40;1.50;;;23.50;54.40;;;;;;5006363;28;20053;-64
2023/09/01 12:11:20;;;;;;;4.05;1.60;;;23.50;54.50;;;;;;5025031;28;20118;-66
2023/09/01 12:13:46;;;;;;;2.60;1.58;;;23.50;54.40;;;;;;5031663;28;20029;-65
2023/09/01 12:16:23;;;;;;;1.90;1.25;;;23.50;54.40;;;;;;5022345;28;20095;-65
2023/09/01 12:18:50;;;;;;;1.95;1.33;;;23.50;54.40;;;;;;5028543;28;20282;-65
2023/09/01 12:21:16;;;;;;;3.38;1.60;;;23.50;54.40;;;;;;5009118;28;20052;-63
2023/09/01 12:23:45;;;;;;;7.03;2.13;;;23.50;54.50;;;;;;5025858;28;20057;-62
2023/09/01 12:26:12;;;;;;;2.40;1.40;;;23.60;54.50;;;;;;5028400;28;20045;-62
2023/09/01 12:28:40;;;;;;;1.98;1.30;;;23.60;54.50;;;;;;5029024;28;20037;-61
2023/09/01 12:31:08;;;;;;;1.95;1.30;;;23.60;54.50;;;;;;5028345;28;20310;-63
2023/09/01 12:33:35;;;;;;;2.03;1.38;;;23.60;54.50;;;;;;5004050;28;20083;-65
2023/09/01 12:36:02;;;;;;;1.73;1.30;;;23.60;54.50;;;;;;5024427;28;20021;-66
2023/09/01 12:38:28;;;;;;;1.83;1.35;;;23.70;54.60;;;;;;5011093;28;20052;-67
2023/09/01 12:40:55;;;;;;;2.72;1.30;;;23.70;54.50;;;;;;5028783;28;20120;-63
2023/09/01 12:43:21;;;;;;;2.05;1.60;;;23.70;54.50;;;;;;5004754;28;20036;-64
2023/09/01 12:45:47;;;;;;;2.13;1.58;;;23.70;54.50;;;;;;5041530;28;20282;-64
2023/09/01 12:48:17;;;;;;;4.05;1.45;;;23.70;54.50;;;;;;4990910;28;20050;-65
2023/09/01 12:50:47;;;;;;;1.95;1.40;;;23.70;54.50;;;;;;5025542;28;21411;-66
2023/09/01 12:53:14;;;;;;;2.03;1.25;;;23.70;54.50;;;;;;5024702;28;20033;-64
2023/09/01 12:55:41;;;;;;;2.28;1.52;;;23.70;54.50;;;;;;4993396;28;20064;-63